Time;durP1;ratioP1;P1;durP2;ratioP2;P2;SDS_P1;SDS_P2;PMS_P1;PMS_P2;Temp;Humidity;BMP_temperature;BMP_pressure;BME280_temperature;BME280_humidity;BME280_pressure;Samples;Min_cycle;Max_cycle;Signal;HPM_P1;HPM_P2
2022/05/05 00:01:26;;;;;;;7.70;3.38;;;;;;;11.14;54.02;94196.09;4990702;28;20664;-70
2022/05/05 00:03:52;;;;;;;5.78;3.55;;;;;;;11.22;54.08;94201.72;4987165;28;20035;-70
2022/05/05 00:06:17;;;;;;;5.60;2.63;;;;;;;11.02;53.98;94182.53;4989310;28;20535;-70
2022/05/05 00:08:42;;;;;;;7.72;3.45;;;;;;;11.17;53.79;94202.66;4987978;28;20030;-70
2022/05/05 00:16:36;;;;;;;5.25;2.50;;;;;;;11.08;53.85;94210.59;4988501;28;20129;-69
2022/05/05 00:19:01;;;;;;;5.43;2.92;;;;;;;11.07;54.18;94205.59;4984934;28;20615;-68
2022/05/05 00:21:26;;;;;;;3.88;2.47;;;;;;;10.98;54.34;94200.22;4988067;28;20046;-70
2022/05/05 00:23:52;;;;;;;4.38;2.90;;;;;;;11.04;54.00;94209.66;4988063;28;20551;-69
2022/05/05 00:26:17;;;;;;;7.22;3.33;;;;;;;11.00;53.96;94203.34;4990673;28;20025;-70
2022/05/05 00:28:42;;;;;;;5.20;2.50;;;;;;;10.95;53.99;94216.81;4980358;28;20389;-69
2022/05/05 00:31:08;;;;;;;4.13;2.55;;;;;;;10.99;53.95;94204.47;4991729;28;20038;-70
2022/05/05 00:33:33;;;;;;;4.55;3.03;;;;;;;10.92;53.97;94204.09;4982810;28;20092;-69
2022/05/05 00:35:59;;;;;;;6.10;2.70;;;;;;;10.86;54.02;94200.00;4991875;28;20033;-68
2022/05/05 00:38:24;;;;;;;4.55;2.78;;;;;;;10.82;54.17;94199.03;4989935;28;20118;-69
2022/05/05 00:40:49;;;;;;;3.55;2.47;;;;;;;10.87;54.15;94214.88;4987423;28;20033;-69
2022/05/05 00:43:15;;;;;;;4.47;3.05;;;;;;;10.87;54.45;94216.75;4980450;28;20116;-68
2022/05/05 00:45:40;;;;;;;5.82;2.92;;;;;;;10.87;54.19;94214.09;4990783;28;20481;-70
2022/05/05 00:48:07;;;;;;;3.78;2.42;;;;;;;10.87;54.23;94214.09;4995309;28;20506;-69
2022/05/05 00:50:34;;;;;;;3.53;2.47;;;;;;;10.84;54.50;94212.84;4994047;28;20026;-70
2022/05/05 00:53:00;;;;;;;3.97;2.83;;;;;;;10.84;54.19;94212.84;4988828;28;20018;-69
2022/05/05 00:55:26;;;;;;;9.68;3.42;;;;;;;10.87;54.47;94217.53;4989352;28;20038;-69
2022/05/05 00:57:51;;;;;;;2.95;2.47;;;;;;;10.88;54.15;94216.44;4989187;28;20510;-69
2022/05/05 01:00:17;;;;;;;7.95;2.70;;;;;;;10.82;54.27;94203.56;4981408;28;20038;-69
2022/05/05 01:02:42;;;;;;;5.63;3.00;;;;;;;10.85;54.13;94209.09;4971444;28;20425;-69
2022/05/05 01:05:08;;;;;;;4.63;2.50;;;;;;;10.68;54.49;94185.03;4961612;28;20038;-69
2022/05/05 01:07:34;;;;;;;5.55;2.65;;;;;;;10.78;54.73;94203.41;4967105;28;20030;-68
2022/05/05 01:10:00;;;;;;;4.75;2.97;;;;;;;10.74;54.49;94205.88;4967656;28;20049;-69
2022/05/05 01:12:31;;;;;;;3.97;2.92;;;;;;;10.67;54.70;94202.06;4963033;28;20575;-70
2022/05/05 01:14:58;;;;;;;5.78;2.85;;;;;;;10.71;54.28;94205.69;4967519;28;20049;-69
2022/05/05 01:17:26;;;;;;;3.97;3.20;;;;;;;10.51;54.36;94177.75;4974367;28;20033;-69
2022/05/05 01:19:51;;;;;;;3.60;2.60;;;;;;;10.66;54.46;94206.59;4965867;28;20301;-69
2022/05/05 01:22:17;;;;;;;3.60;2.40;;;;;;;10.62;54.58;94202.97;4965101;28;20410;-69
2022/05/05 01:30:22;;;;;;;3.22;2.60;;;;;;;10.38;54.34;94169.81;4970521;28;20120;-69
2022/05/05 01:32:47;;;;;;;4.93;3.13;;;;;;;10.53;54.34;94190.72;4970761;28;20528;-69
2022/05/05 01:35:13;;;;;;;3.42;2.17;;;;;;;10.57;54.45;94218.28;4959950;28;20026;-68
2022/05/05 01:37:38;;;;;;;3.45;2.70;;;;;;;10.56;54.46;94217.47;4971446;28;20485;-69
2022/05/05 01:40:04;;;;;;;6.50;2.90;;;;;;;10.56;54.19;94211.41;4963996;28;20038;-69
2022/05/05 01:42:29;;;;;;;6.03;3.70;;;;;;;10.52;54.16;94205.88;4967387;28;20030;-69
2022/05/05 01:44:55;;;;;;;3.75;2.90;;;;;;;10.38;54.62;94204.38;4963668;28;20236;-69
2022/05/05 01:47:20;;;;;;;4.45;2.90;;;;;;;10.51;54.70;94212.31;4968366;28;20477;-68
2022/05/05 01:49:46;;;;;;;4.40;2.80;;;;;;;10.52;54.46;94215.72;4972091;28;20077;-69
2022/05/05 01:52:12;;;;;;;6.93;2.50;;;;;;;10.35;54.86;94204.94;4963460;28;20387;-69
2022/05/05 01:54:38;;;;;;;4.35;2.38;;;;;;;10.46;54.61;94217.75;4967700;28;20046;-69
2022/05/05 01:57:04;;;;;;;3.03;1.95;;;;;;;10.24;54.74;94193.75;4962964;28;20055;-68
2022/05/05 01:59:30;;;;;;;2.97;2.00;;;;;;;10.32;54.75;94215.09;4974277;28;20080;-69
2022/05/05 02:01:56;;;;;;;5.88;2.45;;;;;;;10.30;54.23;94209.31;4972356;28;20073;-69
2022/05/05 02:04:22;;;;;;;3.20;2.42;;;;;;;10.41;54.47;94230.38;4970162;28;20121;-70
2022/05/05 02:06:47;;;;;;;3.92;2.35;;;;;;;10.32;54.08;94216.97;4971075;28;20043;-69
2022/05/05 02:09:12;;;;;;;4.75;2.50;;;;;;;10.40;54.00;94220.81;4968214;28;20039;-69
2022/05/05 02:11:41;;;;;;;3.58;2.78;;;;;;;10.35;53.86;94212.94;4968744;28;20039;-69
2022/05/05 02:14:07;;;;;;;3.03;2.72;;;;;;;10.25;53.72;94216.59;4970618;28;20037;-69
2022/05/05 02:16:32;;;;;;;6.05;3.60;;;;;;;10.28;53.89;94227.41;4965633;28;20610;-68
2022/05/05 02:18:58;;;;;;;4.15;2.80;;;;;;;10.33;54.22;94232.63;4972279;28;20026;-69
2022/05/05 02:21:23;;;;;;;6.85;2.63;;;;;;;10.29;54.24;94234.31;4972972;28;20030;-69
2022/05/05 02:23:49;;;;;;;3.55;2.97;;;;;;;10.22;54.12;94212.66;4969829;28;20019;-69
2022/05/05 02:26:14;;;;;;;3.92;3.08;;;;;;;10.27;54.04;94244.44;4972404;28;20022;-68
2022/05/05 02:28:39;;;;;;;6.53;3.17;;;;;;;10.08;54.37;94227.06;4972274;28;20076;-70
2022/05/05 02:31:05;;;;;;;4.63;2.90;;;;;;;10.24;53.81;94241.63;4974157;28;20049;-69
2022/05/05 02:33:30;;;;;;;3.58;2.22;;;;;;;10.21;53.68;94240.34;4976977;28;20038;-70
2022/05/05 02:38:42;;;;;;;2.55;2.17;;;;;;;10.10;53.46;94236.34;4978665;28;20121;-69
2022/05/05 02:41:08;;;;;;;3.95;2.53;;;;;;;9.93;54.14;94225.53;4974985;28;20036;-69
2022/05/05 02:43:33;;;;;;;3.55;2.55;;;;;;;9.86;53.62;94209.22;4993391;28;20038;-69
2022/05/05 02:45:59;;;;;;;4.95;3.10;;;;;;;10.00;54.17;94241.09;4980322;28;20041;-69
2022/05/05 02:48:24;;;;;;;5.57;2.42;;;;;;;10.03;54.01;94240.47;4995462;28;20034;-68
2022/05/05 02:50:49;;;;;;;4.22;2.92;;;;;;;10.00;54.64;94238.44;4986256;28;20378;-69
2022/05/05 02:56:00;;;;;;;6.22;4.18;;;;;;;9.96;55.37;94246.22;4995597;28;20116;-69
2022/05/05 02:58:29;;;;;;;10.00;4.72;;;;;;;10.00;55.56;94247.19;4994436;28;20030;-69
2022/05/05 03:00:54;;;;;;;11.50;5.80;;;;;;;10.03;55.59;94262.53;4994214;28;20383;-70
2022/05/05 03:03:20;;;;;;;7.03;4.45;;;;;;;9.92;55.82;94245.25;4989792;28;20037;-70
2022/05/05 03:05:46;;;;;;;5.50;3.72;;;;;;;9.98;55.54;94267.94;4992314;28;20482;-69
2022/05/05 03:08:11;;;;;;;8.70;5.13;;;;;;;9.89;55.48;94251.13;4965582;28;20166;-68
2022/05/05 03:10:37;;;;;;;12.23;4.70;;;;;;;10.03;55.74;94278.47;4990016;28;20482;-69
2022/05/05 03:13:02;;;;;;;12.70;6.18;;;;;;;10.03;56.19;94273.16;4992083;28;20038;-69
2022/05/05 03:15:28;;;;;;;13.35;7.13;;;;;;;10.07;56.73;94284.00;4983938;28;20356;-70
2022/05/05 03:17:54;;;;;;;11.73;6.85;;;;;;;10.06;57.43;94285.88;4990281;28;20509;-70
2022/05/05 03:20:19;;;;;;;14.23;6.82;;;;;;;10.02;57.74;94289.41;4990794;28;20520;-69
2022/05/05 03:22:44;;;;;;;12.75;7.80;;;;;;;9.97;57.57;94265.59;4988361;28;20117;-69
2022/05/05 03:25:10;;;;;;;15.55;8.50;;;;;;;10.12;57.85;94276.69;4987296;28;20034;-69
2022/05/05 03:27:36;;;;;;;14.77;7.30;;;;;;;10.12;58.14;94271.38;4989870;28;20041;-69
2022/05/05 03:30:03;;;;;;;18.90;7.93;;;;;;;9.96;58.01;94243.56;4986954;28;20060;-69
2022/05/05 03:32:28;;;;;;;16.20;9.13;;;;;;;10.13;58.35;94272.16;4994856;28;20045;-70
2022/05/05 03:34:54;;;;;;;11.32;6.53;;;;;;;10.10;58.52;94278.88;4988306;28;20031;-69
2022/05/05 03:37:19;;;;;;;15.40;8.90;;;;;;;9.98;58.61;94254.66;4989720;28;20038;-69
2022/05/05 03:39:45;;;;;;;11.43;6.85;;;;;;;9.99;58.30;94242.16;4987548;28;20796;-69
2022/05/05 03:42:10;;;;;;;16.27;7.78;;;;;;;10.11;58.01;94264.50;4993794;28;20041;-69
2022/05/05 03:44:36;;;;;;;12.85;6.90;;;;;;;10.01;58.27;94248.75;4982407;28;20049;-70
2022/05/05 03:47:02;;;;;;;10.70;6.47;;;;;;;10.11;57.71;94264.50;4991044;28;20552;-69
2022/05/05 03:49:27;;;;;;;14.40;7.78;;;;;;;10.12;57.89;94281.22;4987110;28;20046;-70
2022/05/05 03:51:54;;;;;;;15.88;7.07;;;;;;;10.19;58.07;94295.69;4990292;28;20095;-69
2022/05/05 03:54:20;;;;;;;12.27;6.72;;;;;;;10.17;58.22;94289.09;4990881;28;20041;-69
2022/05/05 03:56:45;;;;;;;16.20;8.02;;;;;;;10.21;58.44;94285.53;4989088;28;20064;-68
2022/05/05 03:59:11;;;;;;;14.90;7.60;;;;;;;10.21;58.79;94290.84;4988522;28;20760;-70
2022/05/05 04:01:36;;;;;;;15.98;8.45;;;;;;;10.19;59.14;94294.88;4979952;28;20369;-69
2022/05/05 04:04:01;;;;;;;15.60;9.15;;;;;;;10.02;59.80;94279.56;4989395;28;20026;-70
2022/05/05 04:06:27;;;;;;;19.48;8.25;;;;;;;10.11;59.92;94283.09;4985642;28;20494;-68
2022/05/05 04:08:52;;;;;;;19.67;7.18;;;;;;;10.09;59.72;94290.56;4989848;28;20049;-70
2022/05/05 04:11:18;;;;;;;14.05;8.20;;;;;;;10.02;59.76;94281.44;4991585;28;20025;-69
2022/05/05 04:13:43;;;;;;;16.23;8.60;;;;;;;10.11;59.64;94299.03;4986514;28;20045;-69
2022/05/05 04:16:10;;;;;;;16.90;8.52;;;;;;;10.05;59.93;94308.19;4988812;28;20040;-69
2022/05/05 04:18:35;;;;;;;21.50;9.27;;;;;;;9.99;60.28;94312.03;4986851;28;20509;-69
2022/05/05 04:21:01;;;;;;;15.70;9.27;;;;;;;9.78;60.61;94292.28;4989036;28;20045;-68
2022/05/05 04:23:27;;;;;;;15.30;8.80;;;;;;;10.07;60.69;94322.00;4991990;28;20729;-69
2022/05/05 04:25:52;;;;;;;15.20;7.68;;;;;;;10.07;60.47;94327.31;4987661;28;20038;-69
2022/05/05 04:28:18;;;;;;;14.85;7.20;;;;;;;10.06;60.53;94328.38;4986978;28;20516;-69
2022/05/05 04:30:44;;;;;;;11.68;7.75;;;;;;;9.87;60.96;94301.13;4993327;28;20042;-69
2022/05/05 04:33:11;;;;;;;18.02;8.65;;;;;;;10.01;60.62;94317.06;4984222;28;20112;-69
2022/05/05 04:35:37;;;;;;;14.32;8.45;;;;;;;9.96;60.43;94331.25;4993472;28;20030;-69
2022/05/05 04:38:04;;;;;;;14.88;7.15;;;;;;;9.49;61.71;94323.66;4987979;28;20048;-70
2022/05/05 04:40:30;;;;;;;15.98;9.00;;;;;;;9.11;63.95;94321.09;4987518;28;20061;-69
2022/05/05 04:42:55;;;;;;;14.52;8.43;;;;;;;9.28;63.59;94316.06;4991130;28;20104;-70
2022/05/05 04:45:21;;;;;;;18.88;10.18;;;;;;;9.51;63.14;94321.47;4986401;28;20583;-70
2022/05/05 04:47:46;;;;;;;17.13;9.02;;;;;;;9.92;61.52;94324.94;4989209;28;20048;-69
2022/05/05 04:50:12;;;;;;;19.02;9.30;;;;;;;9.95;60.83;94324.34;4985360;28;20481;-70
2022/05/05 04:52:37;;;;;;;21.98;10.07;;;;;;;9.92;60.71;94313.53;4990744;28;20122;-69
2022/05/05 04:55:03;;;;;;;16.75;10.38;;;;;;;10.00;61.32;94326.91;4982901;28;20095;-69
2022/05/05 04:57:28;;;;;;;22.83;10.35;;;;;;;9.76;62.33;94302.41;4990262;28;20069;-70
2022/05/05 04:59:54;;;;;;;18.48;10.52;;;;;;;9.96;62.62;94325.13;4990383;28;20042;-69
2022/05/05 05:02:19;;;;;;;17.05;9.90;;;;;;;10.05;62.20;94329.47;4993685;28;20064;-69
2022/05/05 05:04:45;;;;;;;22.83;10.85;;;;;;;10.12;62.11;94324.50;4984251;28;20030;-69
2022/05/05 05:07:11;;;;;;;20.20;11.25;;;;;;;10.01;61.77;94328.50;4993523;28;20477;-69
2022/05/05 05:09:36;;;;;;;22.77;12.40;;;;;;;9.99;61.63;94335.94;4986668;28;20394;-68
2022/05/05 05:12:02;;;;;;;22.15;11.18;;;;;;;10.04;61.71;94333.19;4987195;28;20030;-70
2022/05/05 05:14:27;;;;;;;23.35;12.20;;;;;;;9.96;61.75;94309.97;4990671;28;20053;-71
2022/05/05 05:16:53;;;;;;;21.70;11.05;;;;;;;10.13;61.69;94331.41;4983709;28;20034;-69
2022/05/05 05:19:19;;;;;;;22.05;11.90;;;;;;;10.15;61.84;94323.94;4992376;28;20824;-69
2022/05/05 05:21:45;;;;;;;26.05;11.57;;;;;;;9.93;63.39;94336.38;4983055;28;20041;-69
2022/05/05 05:24:11;;;;;;;26.58;12.40;;;;;;;9.89;63.29;94305.06;4991542;28;20038;-69
2022/05/05 05:26:36;;;;;;;25.63;12.23;;;;;;;9.80;63.87;94332.63;4989108;28;20053;-70
2022/05/05 05:29:01;;;;;;;27.65;13.77;;;;;;;8.64;68.42;94339.88;4989469;28;20018;-68
2022/05/05 05:31:28;;;;;;;27.55;13.38;;;;;;;8.26;70.48;94318.66;4984208;28;20554;-69
2022/05/05 05:33:53;;;;;;;26.50;14.07;;;;;;;8.87;68.86;94331.81;4990311;28;20494;-69
2022/05/05 05:36:19;;;;;;;26.08;16.17;;;;;;;9.27;66.48;94330.41;4993027;28;20041;-69
2022/05/05 05:38:44;;;;;;;27.08;13.45;;;;;;;9.49;65.91;94342.25;4993258;28;20364;-70
2022/05/05 05:41:10;;;;;;;25.88;13.77;;;;;;;9.73;65.44;94348.16;4990552;28;20026;-69
2022/05/05 05:43:35;;;;;;;30.02;14.68;;;;;;;9.94;65.95;94345.88;4996761;28;20390;-69
2022/05/05 05:46:00;;;;;;;30.73;14.85;;;;;;;10.00;65.33;94348.16;4987206;28;20052;-70
2022/05/05 05:48:26;;;;;;;26.13;13.23;;;;;;;9.63;65.37;94359.78;4997208;28;20038;-70
2022/05/05 05:50:51;;;;;;;24.95;13.00;;;;;;;9.83;65.39;94359.38;4984905;28;20049;-70
2022/05/05 05:53:17;;;;;;;32.10;14.93;;;;;;;9.11;67.00;94345.00;4994886;28;20029;-70
2022/05/05 05:55:42;;;;;;;33.17;17.10;;;;;;;8.74;70.13;94368.88;4989002;28;20466;-69
2022/05/05 05:58:07;;;;;;;31.83;15.68;;;;;;;8.71;71.59;94361.50;4994037;28;20119;-70
2022/05/05 06:00:33;;;;;;;28.92;15.77;;;;;;;8.66;70.88;94335.06;4990818;28;20639;-69
2022/05/05 06:05:45;;;;;;;34.85;16.42;;;;;;;8.90;70.41;94347.13;4995729;28;20584;-69
2022/05/05 06:08:10;;;;;;;33.15;16.13;;;;;;;9.39;69.85;94349.28;4994746;28;20136;-69
2022/05/05 06:10:36;;;;;;;34.10;15.85;;;;;;;9.64;68.92;94355.22;4991170;28;20409;-69
2022/05/05 06:13:03;;;;;;;29.33;14.85;;;;;;;10.04;66.56;94354.47;4994896;28;20522;-69
2022/05/05 06:15:28;;;;;;;34.63;15.85;;;;;;;9.53;68.25;94353.84;4989326;28;20046;-69
2022/05/05 06:17:54;;;;;;;30.08;15.38;;;;;;;9.01;70.98;94340.59;4985499;28;20060;-69
2022/05/05 06:20:20;;;;;;;33.00;16.13;;;;;;;9.23;71.63;94360.47;4987412;28;20304;-69
2022/05/05 06:22:45;;;;;;;32.35;16.08;;;;;;;8.85;73.21;94359.72;4989099;28;20509;-69
2022/05/05 06:25:11;;;;;;;31.70;17.33;;;;;;;8.81;72.96;94354.19;4992020;28;20034;-70
2022/05/05 06:27:39;;;;;;;34.60;18.25;;;;;;;9.17;71.34;94361.63;4986611;28;20045;-70
2022/05/05 06:30:06;;;;;;;29.70;16.40;;;;;;;8.83;71.88;94352.03;4990440;28;20061;-69
2022/05/05 06:32:31;;;;;;;37.22;17.88;;;;;;;8.91;70.74;94345.28;4990560;28;20037;-69
2022/05/05 06:34:57;;;;;;;31.77;16.05;;;;;;;9.12;71.08;94333.31;4988864;28;20030;-70
2022/05/05 06:37:25;;;;;;;34.83;17.50;;;;;;;8.74;71.72;94345.81;4993143;28;20061;-68
2022/05/05 06:39:51;;;;;;;33.85;16.88;;;;;;;8.75;72.34;94354.56;4983503;28;21388;-68
2022/05/05 06:42:17;;;;;;;32.25;17.20;;;;;;;8.74;73.92;94359.06;4987510;28;20052;-69
2022/05/05 06:44:43;;;;;;;41.20;19.85;;;;;;;8.55;75.16;94353.78;4983834;28;20049;-69
2022/05/05 06:47:08;;;;;;;35.15;18.85;;;;;;;8.72;74.44;94368.38;4990066;28;20087;-69
2022/05/05 06:49:34;;;;;;;35.28;17.80;;;;;;;8.77;74.92;94365.66;4984012;28;20523;-70
2022/05/05 06:52:00;;;;;;;46.42;21.40;;;;;;;9.17;73.78;94370.38;4985673;28;20038;-70
2022/05/05 06:54:27;;;;;;;43.13;21.08;;;;;;;9.06;73.43;94371.56;4991407;28;20143;-69
2022/05/05 06:56:52;;;;;;;39.45;19.15;;;;;;;9.70;71.68;94370.00;4981802;28;20046;-69
2022/05/05 06:59:18;;;;;;;36.00;18.33;;;;;;;9.25;72.63;94364.38;4991394;28;20132;-69
2022/05/05 07:01:52;;;;;;;36.28;18.73;;;;;;;9.94;70.38;94373.25;4986767;28;20042;-69
2022/05/05 07:07:06;;;;;;;38.72;19.48;;;;;;;10.19;70.48;94372.75;4971650;28;20257;-68
2022/05/05 07:12:17;;;;;;;;;;;;;;;10.20;71.07;94371.69;4989452;28;20128;-70
2022/05/05 07:14:44;;;;;;;39.35;19.90;;;;;;;10.70;68.15;94371.72;4988864;28;20370;-69
2022/05/05 07:17:10;;;;;;;39.80;20.52;;;;;;;10.65;68.79;94369.19;4969707;28;20958;-69
2022/05/05 07:19:36;;;;;;;45.55;24.33;;;;;;;10.08;71.82;94366.06;4974145;28;20570;-69
2022/05/05 07:22:02;;;;;;;43.90;23.20;;;;;;;10.13;72.18;94373.94;4966336;28;20046;-69
2022/05/05 07:24:29;;;;;;;38.35;20.20;;;;;;;10.56;72.07;94373.66;4972673;28;20038;-69
2022/05/05 07:26:55;;;;;;;39.63;20.73;;;;;;;10.88;68.62;94356.69;4966026;28;20049;-69
2022/05/05 07:29:20;;;;;;;40.08;20.63;;;;;;;10.99;68.49;94374.78;4971672;28;20026;-69
2022/05/05 07:31:46;;;;;;;36.67;18.98;;;;;;;11.05;68.92;94378.88;4969177;28;20096;-69
2022/05/05 07:34:12;;;;;;;36.75;19.38;;;;;;;10.94;68.34;94377.56;4963091;28;20061;-69
2022/05/05 07:36:37;;;;;;;32.75;16.73;;;;;;;10.80;68.03;94374.16;4968220;28;20125;-69
2022/05/05 07:39:02;;;;;;;34.13;18.80;;;;;;;11.27;67.55;94370.13;4972355;28;20555;-69
2022/05/05 07:41:28;;;;;;;41.75;19.02;;;;;;;11.18;66.62;94351.44;4986797;28;20119;-70
2022/05/05 07:43:53;;;;;;;37.97;18.60;;;;;;;11.34;65.92;94375.03;4991393;28;20624;-69
2022/05/05 07:46:19;;;;;;;40.20;17.08;;;;;;;11.15;65.49;94343.25;4986485;28;20076;-71
2022/05/05 07:48:45;;;;;;;36.90;17.80;;;;;;;11.71;64.78;94364.00;4989637;28;20061;-69
2022/05/05 07:51:11;;;;;;;34.10;16.48;;;;;;;11.58;65.09;94376.31;4988834;28;20116;-70
2022/05/05 07:53:36;;;;;;;35.10;16.73;;;;;;;11.95;63.43;94369.75;4987719;28;21312;-69
2022/05/05 07:56:02;;;;;;;29.10;15.35;;;;;;;11.84;64.55;94379.09;4990539;28;20084;-70
2022/05/05 07:58:28;;;;;;;27.35;15.40;;;;;;;11.67;62.33;94351.59;4984315;28;20448;-70
2022/05/05 08:00:53;;;;;;;27.60;14.25;;;;;;;12.05;61.82;94371.34;4992534;28;20208;-68
2022/05/05 08:03:19;;;;;;;27.00;13.40;;;;;;;11.86;60.38;94354.81;4986050;28;20044;-70
2022/05/05 08:05:44;;;;;;;25.50;12.77;;;;;;;12.13;61.03;94367.13;4991448;28;20144;-69
2022/05/05 08:08:10;;;;;;;20.73;12.57;;;;;;;12.55;60.20;94377.16;4983416;28;20037;-70
2022/05/05 08:10:35;;;;;;;25.77;12.23;;;;;;;12.23;59.71;94390.84;4990116;28;20038;-69
2022/05/05 08:13:01;;;;;;;23.95;11.77;;;;;;;12.41;59.29;94384.50;4988345;28;20152;-69
2022/05/05 08:15:26;;;;;;;20.75;10.95;;;;;;;12.77;58.20;94387.72;4986289;28;20041;-69
2022/05/05 08:17:52;;;;;;;20.38;12.48;;;;;;;12.58;58.86;94387.22;4989499;28;20045;-70
2022/05/05 08:20:17;;;;;;;23.02;12.05;;;;;;;12.26;58.61;94392.91;4986777;28;20351;-69
2022/05/05 08:22:43;;;;;;;19.92;12.50;;;;;;;12.93;57.36;94381.91;4989059;28;20271;-70
2022/05/05 08:30:38;;;;;;;23.20;13.00;;;;;;;12.67;57.90;94366.66;4989370;28;20500;-69
2022/05/05 08:33:03;;;;;;;21.95;12.77;;;;;;;12.60;57.05;94379.69;4989735;28;20361;-69
2022/05/05 08:35:29;;;;;;;25.23;13.32;;;;;;;13.14;57.16;94378.31;4990445;28;20049;-70
2022/05/05 08:37:55;;;;;;;17.92;11.45;;;;;;;12.91;56.69;94373.47;4989200;28;20696;-70
2022/05/05 08:40:25;;;;;;;23.38;11.65;;;;;;;13.31;57.10;94378.28;4991042;28;20190;-68
2022/05/05 08:42:50;;;;;;;22.13;11.88;;;;;;;13.29;57.81;94356.47;4991521;28;20455;-70
2022/05/05 08:45:17;;;;;;;20.38;11.93;;;;;;;13.23;55.83;94376.44;4988578;28;20048;-69
2022/05/05 08:47:45;;;;;;;19.40;10.90;;;;;;;13.60;55.92;94380.31;4989359;28;20021;-69
2022/05/05 08:50:11;;;;;;;17.10;9.32;;;;;;;13.54;54.38;94360.19;4986248;28;20026;-69
2022/05/05 08:52:47;;;;;;;22.33;11.32;;;;;;;13.41;53.33;94345.13;4992012;28;20040;-70
2022/05/05 08:55:14;;;;;;;16.10;8.32;;;;;;;13.60;52.85;94372.31;4983801;28;20127;-70
2022/05/05 08:57:41;;;;;;;12.88;7.30;;;;;;;13.34;52.58;94352.84;4988007;28;20409;-69
2022/05/05 09:00:07;;;;;;;10.25;7.03;;;;;;;14.02;50.39;94364.47;4987595;28;20101;-69
2022/05/05 09:02:32;;;;;;;15.40;7.05;;;;;;;13.99;48.85;94349.06;4990388;28;20021;-70
2022/05/05 09:04:58;;;;;;;10.05;5.93;;;;;;;14.10;47.71;94350.28;4987035;28;20589;-69
2022/05/05 09:07:50;;;;;;;5.53;3.55;;;;;;;14.27;44.62;94366.25;4988554;28;20038;-69
2022/05/05 09:10:17;;;;;;;5.88;4.32;;;;;;;14.40;46.49;94357.22;4999209;28;20505;-69
2022/05/05 09:12:56;;;;;;;9.38;5.40;;;;;;;14.47;47.30;94359.38;4987249;28;20038;-69
2022/05/05 09:15:32;;;;;;;9.73;5.85;;;;;;;14.39;49.05;94341.47;4982092;28;20489;-69
2022/05/05 09:18:33;;;;;;;11.95;5.65;;;;;;;14.26;48.22;94337.16;4988133;28;20489;-67
2022/05/05 09:21:06;;;;;;;10.00;6.32;;;;;;;14.10;48.17;94372.47;4988115;28;20038;-69
2022/05/05 09:23:31;;;;;;;15.15;7.55;;;;;;;14.47;48.79;94360.16;4984934;28;20045;-69
2022/05/05 09:25:58;;;;;;;10.63;6.65;;;;;;;14.91;48.08;94356.09;4982655;28;20459;-69
2022/05/05 09:28:28;;;;;;;5.15;3.95;;;;;;;14.77;44.30;94352.91;4973514;28;20042;-70
2022/05/05 09:30:54;;;;;;;9.85;5.72;;;;;;;14.79;46.00;94356.06;4971151;28;20048;-69
2022/05/05 09:33:42;;;;;;;8.70;5.10;;;;;;;14.81;44.77;94356.53;4968879;28;20518;-69
2022/05/05 09:36:15;;;;;;;7.43;4.00;;;;;;;15.11;43.52;94353.78;4967776;28;20069;-69
2022/05/05 09:38:52;;;;;;;7.40;5.25;;;;;;;15.50;43.19;94353.25;4966261;28;20026;-70
2022/05/05 09:41:25;;;;;;;7.47;4.78;;;;;;;15.44;43.68;94355.38;4969642;28;20024;-69
2022/05/05 09:43:53;;;;;;;11.23;6.38;;;;;;;15.23;43.92;94341.19;4966088;28;20038;-70
2022/05/05 09:46:28;;;;;;;10.45;6.57;;;;;;;15.05;43.88;94355.88;4965556;28;20055;-70
2022/05/05 09:49:04;;;;;;;12.82;7.30;;;;;;;15.12;44.56;94348.06;4972537;28;20489;-69
2022/05/05 09:51:29;;;;;;;11.15;6.68;;;;;;;15.02;44.92;94348.47;4969270;28;20108;-70
2022/05/05 09:59:40;;;;;;;9.07;6.55;;;;;;;15.20;45.63;94325.78;4968011;28;20029;-70
2022/05/05 10:05:13;;;;;;;16.52;7.40;;;;;;;15.57;44.90;94320.56;4982937;28;20037;-69
2022/05/05 10:07:44;;;;;;;9.55;6.30;;;;;;;15.61;43.82;94332.19;4972469;28;20230;-69
2022/05/05 10:10:10;;;;;;;7.20;4.82;;;;;;;16.08;43.65;94335.28;4978373;28;20045;-69
2022/05/05 10:12:36;;;;;;;8.27;5.45;;;;;;;16.16;43.64;94326.34;4989310;28;20042;-69
2022/05/05 10:15:02;;;;;;;7.97;5.43;;;;;;;15.92;44.12;94337.06;4987446;28;20100;-69
2022/05/05 10:17:28;;;;;;;7.93;3.65;;;;;;;16.10;43.14;94339.19;4990022;28;20565;-70
2022/05/05 10:19:53;;;;;;;8.15;2.88;;;;;;;16.04;40.43;94334.38;4986925;28;20144;-70
2022/05/05 10:22:32;;;;;;;6.00;2.70;;;;;;;16.30;39.38;94341.00;4986678;28;20034;-69
2022/05/05 10:25:08;;;;;;;3.10;2.30;;;;;;;16.37;37.11;94327.03;4992685;28;20133;-69
2022/05/05 10:27:33;;;;;;;5.47;2.65;;;;;;;16.67;36.28;94341.00;4988290;28;20057;-69
2022/05/05 10:30:00;;;;;;;5.05;2.95;;;;;;;16.72;39.27;94308.53;4992471;28;20038;-69
2022/05/05 10:32:28;;;;;;;4.80;3.28;;;;;;;16.64;37.80;94331.69;4986677;28;20033;-70
2022/05/05 10:34:54;;;;;;;3.40;2.50;;;;;;;16.06;37.81;94343.66;4992278;28;20041;-69
2022/05/05 10:37:30;;;;;;;2.88;2.20;;;;;;;15.88;38.00;94332.38;4986966;28;20498;-70
2022/05/05 10:40:06;;;;;;;4.40;2.10;;;;;;;15.85;37.69;94340.28;4990423;28;20522;-69
2022/05/05 10:42:49;;;;;;;5.47;2.92;;;;;;;15.89;38.44;94338.47;4985807;28;20455;-69
2022/05/05 10:45:20;;;;;;;3.65;3.08;;;;;;;16.40;37.77;94334.41;4982211;28;20046;-69
2022/05/05 10:48:06;;;;;;;5.68;3.20;;;;;;;16.77;40.15;94339.75;4987806;28;20029;-71
2022/05/05 10:50:34;;;;;;;3.92;2.13;;;;;;;16.78;37.05;94323.28;4989760;28;20030;-69
2022/05/05 10:53:01;;;;;;;3.15;2.22;;;;;;;16.55;36.35;94338.31;4991821;28;20688;-70
2022/05/05 10:55:32;;;;;;;2.10;1.63;;;;;;;16.80;35.48;94298.75;4988239;28;20069;-69
2022/05/05 10:57:58;;;;;;;4.97;2.40;;;;;;;17.05;33.81;94335.19;4990744;28;20054;-69
2022/05/05 11:00:24;;;;;;;2.03;1.73;;;;;;;16.69;34.71;94328.00;4993093;28;20960;-69
2022/05/05 11:02:58;;;;;;;2.53;1.80;;;;;;;16.82;33.82;94340.28;4993912;28;20709;-69
2022/05/05 11:05:26;;;;;;;2.63;2.15;;;;;;;16.71;35.41;94331.13;4995370;28;20433;-69
2022/05/05 11:07:51;;;;;;;3.67;2.60;;;;;;;16.61;36.14;94343.13;4991568;28;20042;-70
2022/05/05 11:10:48;;;;;;;2.50;2.22;;;;;;;17.25;37.20;94333.47;4993595;28;20693;-69
2022/05/05 11:13:42;;;;;;;2.30;1.80;;;;;;;17.02;34.14;94282.91;4960585;28;20045;-69
2022/05/05 11:22:15;;;;;;;;;;;;;;;17.79;34.40;94326.47;4993334;28;20843;-69
2022/05/05 11:24:45;;;;;;;3.47;1.90;;;;;;;17.70;35.56;94330.47;4992794;28;20265;-70
2022/05/05 11:27:16;;;;;;;3.60;2.22;;;;;;;17.79;34.07;94331.06;4993684;28;20282;-70
2022/05/05 11:29:48;;;;;;;2.92;2.35;;;;;;;18.17;34.05;94327.81;4981621;28;20030;-69
2022/05/05 11:32:13;;;;;;;2.05;1.67;;;;;;;18.26;34.75;94323.03;4974951;28;20573;-70
2022/05/05 11:34:40;;;;;;;2.55;1.60;;;;;;;18.40;34.92;94328.75;4983076;28;20042;-70
2022/05/05 11:37:08;;;;;;;6.90;2.50;;;;;;;17.98;34.42;94301.59;4991942;28;20049;-69
2022/05/05 11:39:35;;;;;;;2.20;1.85;;;;;;;17.66;33.17;94332.25;4989029;28;20379;-70
2022/05/05 11:42:04;;;;;;;2.45;1.77;;;;;;;17.41;34.12;94328.91;4994824;28;20049;-69
2022/05/05 11:44:29;;;;;;;1.55;1.40;;;;;;;17.46;33.70;94331.34;4993498;28;20026;-71
2022/05/05 11:46:59;;;;;;;3.17;1.38;;;;;;;17.65;33.64;94331.47;4971932;28;20338;-69
2022/05/05 11:49:32;;;;;;;3.78;2.25;;;;;;;17.62;35.18;94326.78;4970585;28;20066;-69
2022/05/05 11:51:59;;;;;;;1.60;1.48;;;;;;;17.79;35.03;94320.31;4971472;28;20047;-70
2022/05/05 11:54:27;;;;;;;2.45;1.70;;;;;;;17.55;33.84;94311.22;4970764;28;20042;-69
2022/05/05 11:56:53;;;;;;;6.20;1.58;;;;;;;17.79;34.54;94321.09;4971173;28;20125;-69
2022/05/05 12:02:10;;;;;;;2.60;1.40;;;;;;;17.47;34.44;94312.19;4989652;28;20040;-69
2022/05/05 12:04:49;;;;;;;3.20;2.67;;;;;;;17.55;35.15;94305.09;4988530;28;20583;-69
2022/05/05 12:07:22;;;;;;;3.40;1.80;;;;;;;17.52;34.91;94311.16;4993570;28;20037;-69
2022/05/05 12:09:56;;;;;;;2.05;1.45;;;;;;;17.59;35.67;94303.28;4990652;28;20068;-69
2022/05/05 12:12:24;;;;;;;2.10;1.85;;;;;;;17.59;34.78;94305.97;4993661;28;20498;-69
2022/05/05 12:14:51;;;;;;;1.45;1.30;;;;;;;18.05;34.45;94304.44;4990207;28;20048;-69
2022/05/05 12:17:19;;;;;;;1.85;1.60;;;;;;;17.70;34.93;94306.25;4995050;28;20572;-70